Time;durP1;ratioP1;P1;durP2;ratioP2;P2;SDS_P1;SDS_P2;PMS_P1;PMS_P2;Temp;Humidity;BMP_temperature;BMP_pressure;BME280_temperature;BME280_humidity;BME280_pressure;Samples;Min_cycle;Max_cycle;Signal;HPM_P1;HPM_P2
2022/05/04 00:02:21;;;;;;;8.30;7.50;;;;;;;16.11;59.05;98689.53;7003684;28;20605;-79
2022/05/04 00:05:42;;;;;;;8.27;6.57;;;;;;;16.36;57.29;98684.53;7002249;28;20731;-79
2022/05/04 00:09:04;;;;;;;8.37;7.50;;;;;;;15.95;57.57;98701.16;7003459;28;20211;-79
2022/05/04 00:12:27;;;;;;;7.97;7.27;;;;;;;15.88;58.55;98698.59;7002520;28;20378;-79
2022/05/04 00:15:49;;;;;;;8.70;7.90;;;;;;;15.58;58.77;98649.03;7003184;28;20564;-79
2022/05/04 00:19:10;;;;;;;9.63;8.00;;;;;;;16.04;58.15;98680.69;7003414;28;20801;-79
2022/05/04 00:22:32;;;;;;;8.30;7.43;;;;;;;15.84;59.05;98685.72;7003513;28;20326;-79
2022/05/04 00:25:54;;;;;;;8.43;7.50;;;;;;;16.06;57.58;98686.69;7002213;28;20227;-79
2022/05/04 00:29:17;;;;;;;7.17;6.53;;;;;;;16.01;57.31;98686.59;7003378;28;20217;-79
2022/05/04 00:32:38;;;;;;;9.27;8.33;;;;;;;15.23;59.36;98686.25;7003326;28;20233;-79
2022/05/04 00:36:00;;;;;;;10.47;8.50;;;;;;;14.99;60.51;98679.19;7002565;28;20215;-79
2022/05/04 00:39:21;;;;;;;9.67;8.67;;;;;;;15.11;60.52;98684.63;7002621;28;20298;-79
2022/05/04 00:42:43;;;;;;;13.40;9.13;;;;;;;15.60;59.95;98679.53;7002972;28;20380;-80
2022/05/04 00:46:06;;;;;;;8.97;7.20;;;;;;;15.80;58.36;98681.84;7002275;28;20254;-79
2022/05/04 00:49:27;;;;;;;8.67;7.23;;;;;;;15.54;58.60;98694.06;7003256;28;20293;-79
2022/05/04 00:52:50;;;;;;;8.77;7.47;;;;;;;15.24;59.16;98662.66;7002787;28;20250;-79
2022/05/04 00:56:12;;;;;;;9.33;8.37;;;;;;;15.27;58.92;98689.34;7002302;28;20207;-79
2022/05/04 00:59:33;;;;;;;9.17;8.23;;;;;;;15.54;58.68;98674.22;7002699;28;20252;-79
2022/05/04 01:02:56;;;;;;;8.60;7.67;;;;;;;15.55;57.77;98649.53;7002309;28;20291;-79
2022/05/04 01:06:18;;;;;;;8.73;7.93;;;;;;;15.65;58.01;98690.50;7001284;28;20210;-79
2022/05/04 01:09:39;;;;;;;8.57;7.77;;;;;;;15.64;57.96;98691.53;7002447;28;20214;-79
2022/05/04 01:13:03;;;;;;;9.47;8.37;;;;;;;15.53;58.38;98687.00;7001364;28;20306;-79
2022/05/04 01:16:25;;;;;;;9.63;8.63;;;;;;;14.88;60.74;98690.06;7002799;28;20198;-79
2022/05/04 01:19:48;;;;;;;10.17;9.10;;;;;;;15.50;59.19;98681.19;7008037;28;20713;-79
2022/05/04 01:23:11;;;;;;;9.27;8.33;;;;;;;15.39;58.75;98644.03;7007957;28;20812;-79
2022/05/04 01:26:32;;;;;;;10.77;8.83;;;;;;;15.61;59.18;98678.47;7007182;28;20217;-79
2022/05/04 01:29:54;;;;;;;9.10;7.80;;;;;;;15.70;58.74;98678.91;7007893;28;20243;-79
2022/05/04 01:33:15;;;;;;;9.17;8.10;;;;;;;15.57;59.02;98681.91;7007353;28;20285;-79
2022/05/04 01:36:37;;;;;;;10.10;7.97;;;;;;;15.72;59.14;98684.91;7006775;28;20301;-79
2022/05/04 01:40:00;;;;;;;10.00;8.50;;;;;;;15.92;58.09;98685.34;7007308;28;20209;-79
2022/05/04 01:43:21;;;;;;;8.90;8.07;;;;;;;15.74;58.83;98680.09;7006845;28;20623;-79
2022/05/04 01:46:43;;;;;;;11.30;7.33;;;;;;;15.91;58.31;98670.06;7006807;28;20206;-79
2022/05/04 01:50:06;;;;;;;8.63;7.43;;;;;;;15.62;58.31;98666.50;7006503;28;20307;-79
2022/05/04 01:53:27;;;;;;;9.67;8.37;;;;;;;15.44;59.34;98691.13;7007192;28;20598;-79
2022/05/04 01:56:50;;;;;;;9.03;8.17;;;;;;;15.31;59.48;98687.78;7006643;28;20240;-80
2022/05/04 02:00:13;;;;;;;8.50;7.67;;;;;;;15.58;59.53;98699.84;7007422;28;20217;-79
2022/05/04 02:03:35;;;;;;;11.03;7.50;;;;;;;15.72;58.11;98682.19;7006690;28;20271;-79
2022/05/04 02:06:56;;;;;;;8.97;8.07;;;;;;;15.74;57.92;98699.13;7005883;28;20217;-79
2022/05/04 02:10:18;;;;;;;8.37;7.57;;;;;;;15.89;58.06;98692.09;7006721;28;20802;-79
2022/05/04 02:13:42;;;;;;;8.07;7.17;;;;;;;15.90;57.78;98698.34;7005398;28;20222;-79
2022/05/04 02:17:04;;;;;;;8.60;7.70;;;;;;;16.05;56.75;98698.66;7006526;28;20194;-79
2022/05/04 02:20:25;;;;;;;8.70;7.37;;;;;;;15.89;57.26;98707.56;7006104;28;20221;-79
2022/05/04 02:23:47;;;;;;;8.30;7.50;;;;;;;15.58;57.41;98662.63;7005695;28;20234;-79
2022/05/04 02:27:08;;;;;;;9.23;7.47;;;;;;;15.65;57.96;98676.06;7005965;28;20289;-79
2022/05/04 02:30:31;;;;;;;8.20;7.10;;;;;;;16.00;57.36;98704.81;7005534;28;20299;-79
2022/05/04 02:33:53;;;;;;;7.33;6.63;;;;;;;15.80;57.83;98698.97;7006094;28;20213;-79
2022/05/04 02:41:08;;;;;;;9.20;7.40;;;;;;;15.42;59.53;98681.56;6948004;28;20223;-79
2022/05/04 02:44:30;;;;;;;9.73;8.73;;;;;;;15.44;60.03;98695.72;6959168;28;20251;-79
2022/05/04 02:47:53;;;;;;;9.10;8.20;;;;;;;15.42;59.93;98690.56;7020347;28;20210;-79
2022/05/04 02:51:15;;;;;;;9.00;8.10;;;;;;;15.52;59.81;98693.47;7022234;28;20227;-80
2022/05/04 02:54:36;;;;;;;8.53;7.70;;;;;;;15.63;60.05;98692.63;7022238;28;20215;-80
2022/05/04 02:57:58;;;;;;;9.03;8.13;;;;;;;15.92;58.80;98675.28;7021050;28;20215;-80
2022/05/04 03:05:02;;;;;;;8.90;7.83;;;;;;;16.17;57.87;98702.16;7021956;28;20190;-80
2022/05/04 03:08:23;;;;;;;9.17;8.33;;;;;;;15.87;58.45;98699.63;7021411;28;20201;-80
2022/05/04 03:11:57;;;;;;;9.57;8.07;;;;;;;15.83;58.93;98694.94;7013603;28;20226;-80
2022/05/04 03:15:18;;;;;;;8.90;8.00;;;;;;;15.67;59.43;98701.94;7005522;28;20209;-80
2022/05/04 03:18:40;;;;;;;9.30;8.40;;;;;;;15.67;60.08;98698.41;7005450;28;20682;-79
2022/05/04 03:22:03;;;;;;;14.40;8.60;;;;;;;15.70;59.84;98665.31;7022377;28;20230;-80
2022/05/04 03:25:25;;;;;;;8.47;7.60;;;;;;;15.63;59.06;98646.41;7048274;28;20292;-81
2022/05/04 03:28:46;;;;;;;8.40;7.53;;;;;;;16.24;58.45;98684.63;7034993;28;20204;-80
2022/05/04 03:32:09;;;;;;;11.53;8.53;;;;;;;16.31;58.21;98677.13;7044293;28;20231;-80
2022/05/04 03:35:30;;;;;;;10.30;7.93;;;;;;;15.96;58.75;98686.50;7047928;28;20258;-80
2022/05/04 03:38:53;;;;;;;10.17;8.63;;;;;;;15.19;61.32;98662.53;7039401;28;20205;-80
2022/05/04 03:42:15;;;;;;;9.70;8.70;;;;;;;15.68;60.36;98673.69;7033282;28;20301;-80
2022/05/04 03:45:36;;;;;;;8.60;7.77;;;;;;;16.29;58.73;98689.31;7033413;28;20193;-79
2022/05/04 03:48:59;;;;;;;10.70;7.83;;;;;;;16.30;58.46;98686.34;7034599;28;20326;-79
2022/05/04 03:52:21;;;;;;;9.67;8.10;;;;;;;16.12;58.74;98677.56;7033824;28;20694;-80
2022/05/04 03:55:44;;;;;;;9.93;7.67;;;;;;;16.13;58.94;98688.22;7034599;28;20212;-79
2022/05/04 03:59:06;;;;;;;10.23;9.13;;;;;;;16.30;58.49;98680.09;7034576;28;20197;-79
2022/05/04 04:02:27;;;;;;;10.77;8.50;;;;;;;16.34;58.55;98697.56;7034227;28;20230;-80
2022/05/04 04:05:49;;;;;;;9.43;8.47;;;;;;;16.50;57.88;98689.47;7033674;28;20692;-79
2022/05/04 04:09:10;;;;;;;9.77;8.50;;;;;;;16.37;58.01;98695.19;7034696;28;20209;-79
2022/05/04 04:12:36;;;;;;;9.60;8.50;;;;;;;16.17;58.67;98683.09;7034156;28;20222;-80
2022/05/04 04:15:57;;;;;;;9.97;8.40;;;;;;;16.16;58.85;98698.59;7012137;28;20206;-78
2022/05/04 04:19:19;;;;;;;10.00;7.83;;;;;;;16.08;59.07;98699.00;7012086;28;20574;-79
2022/05/04 04:22:40;;;;;;;9.27;8.33;;;;;;;16.43;58.01;98694.25;7009006;28;20237;-78
2022/05/04 04:26:02;;;;;;;8.57;7.70;;;;;;;16.40;58.10;98686.56;7023484;28;20207;-77
2022/05/04 04:29:24;;;;;;;8.63;7.73;;;;;;;16.30;57.31;98653.72;7025629;28;20226;-78
2022/05/04 04:32:46;;;;;;;8.13;7.33;;;;;;;16.56;57.43;98706.69;7021778;28;20223;-78
2022/05/04 04:36:08;;;;;;;7.60;6.90;;;;;;;16.43;57.93;98694.25;7025330;28;20285;-78
2022/05/04 04:39:29;;;;;;;8.93;7.53;;;;;;;16.40;57.58;98702.06;7030540;28;20287;-78
2022/05/04 04:42:51;;;;;;;10.07;7.93;;;;;;;16.36;58.13;98699.00;7031463;28;20693;-78
2022/05/04 04:46:14;;;;;;;8.50;7.53;;;;;;;16.68;57.55;98716.47;7030447;28;20735;-76
2022/05/04 04:49:35;;;;;;;9.93;7.97;;;;;;;16.81;56.70;98701.72;7030712;28;20205;-76
2022/05/04 04:52:57;;;;;;;7.50;6.80;;;;;;;16.75;56.15;98710.88;7033303;28;20299;-78
2022/05/04 04:56:18;;;;;;;7.47;6.77;;;;;;;16.58;57.11;98713.56;7034969;28;20294;-77
2022/05/04 04:59:40;;;;;;;8.73;7.63;;;;;;;16.53;57.25;98712.66;7037341;28;20209;-78
2022/05/04 05:03:03;;;;;;;8.53;7.50;;;;;;;16.76;56.81;98707.88;7036667;28;20258;-80
2022/05/04 05:06:25;;;;;;;9.17;7.07;;;;;;;16.70;56.72;98705.31;7021931;28;20219;-77
2022/05/04 05:09:46;;;;;;;8.20;7.37;;;;;;;16.87;56.72;98703.44;7009457;28;20208;-77
2022/05/04 05:13:09;;;;;;;8.27;7.40;;;;;;;17.07;56.39;98709.19;7021782;28;20221;-78
2022/05/04 05:16:29;;;;;;;8.40;7.67;;;;;;;16.96;56.42;98702.78;7015657;28;20206;-78
2022/05/04 05:19:52;;;;;;;8.80;7.20;;;;;;;17.33;55.27;98717.50;7041386;28;20212;-78
2022/05/04 05:23:14;;;;;;;8.77;7.03;;;;;;;17.29;55.59;98719.06;7029721;28;20236;-79
2022/05/04 05:26:36;;;;;;;7.93;6.90;;;;;;;17.16;55.46;98719.44;7041081;28;20286;-77
2022/05/04 05:29:58;;;;;;;8.07;7.27;;;;;;;17.38;54.72;98704.00;7032785;28;20267;-78
2022/05/04 05:33:19;;;;;;;7.80;7.00;;;;;;;17.65;54.63;98724.03;7015488;28;20645;-79
2022/05/04 05:36:42;;;;;;;7.63;6.90;;;;;;;17.94;53.78;98722.75;7035526;28;20337;-79
2022/05/04 05:40:05;;;;;;;7.10;6.50;;;;;;;18.02;53.01;98719.59;7044469;28;20531;-78
2022/05/04 05:43:28;;;;;;;7.57;6.83;;;;;;;17.98;52.90;98731.25;7032571;28;20290;-77
2022/05/04 05:46:49;;;;;;;6.97;6.30;;;;;;;18.02;52.65;98733.22;7027756;28;20205;-78
2022/05/04 05:50:11;;;;;;;6.70;6.10;;;;;;;18.12;52.21;98735.25;7045041;28;20261;-78
2022/05/04 05:53:34;;;;;;;7.43;6.27;;;;;;;18.09;52.31;98733.00;7042579;28;20233;-78
2022/05/04 05:56:56;;;;;;;6.90;6.20;;;;;;;17.95;52.30;98705.31;7032792;28;20628;-78
2022/05/04 06:00:18;;;;;;;7.70;6.90;;;;;;;18.27;52.61;98741.69;7031162;28;20294;-79
2022/05/04 06:03:39;;;;;;;7.93;6.53;;;;;;;18.11;52.22;98679.03;7017414;28;20724;-77
2022/05/04 06:07:01;;;;;;;9.60;6.57;;;;;;;18.18;52.36;98726.03;7032989;28;20287;-77
2022/05/04 06:10:24;;;;;;;9.33;7.13;;;;;;;18.48;51.58;98732.69;7033451;28;20216;-77
2022/05/04 06:13:47;;;;;;;7.10;6.40;;;;;;;18.16;51.88;98706.38;7031956;28;20225;-77
2022/05/04 06:17:09;;;;;;;7.37;6.67;;;;;;;18.38;52.04;98737.19;7033570;28;20204;-77
2022/05/04 06:20:31;;;;;;;7.60;6.80;;;;;;;18.37;51.84;98728.22;7022364;28;20665;-78
2022/05/04 06:23:53;;;;;;;7.00;6.27;;;;;;;18.53;52.00;98740.94;7022565;28;20223;-77
2022/05/04 06:27:15;;;;;;;6.97;6.23;;;;;;;18.34;52.66;98734.16;7033779;28;20292;-78
2022/05/04 06:34:17;;;;;;;7.27;6.27;;;;;;;18.54;51.54;98747.22;7006336;28;20201;-77
2022/05/04 06:37:39;;;;;;;6.93;6.23;;;;;;;18.83;50.90;98730.31;7005729;28;20685;-77
2022/05/04 06:41:00;;;;;;;6.07;5.47;;;;;;;18.96;50.00;98739.97;7008431;28;20233;-79
2022/05/04 06:44:23;;;;;;;6.60;5.90;;;;;;;18.88;50.56;98746.72;7006168;28;20234;-78
2022/05/04 06:47:45;;;;;;;7.53;5.73;;;;;;;19.02;50.22;98744.38;7005412;28;20206;-77
2022/05/04 06:51:06;;;;;;;6.60;5.97;;;;;;;19.24;49.67;98753.34;7004707;28;20222;-78
2022/05/04 06:54:28;;;;;;;7.33;6.17;;;;;;;19.42;49.56;98751.06;7005834;28;20242;-78
2022/05/04 06:57:50;;;;;;;6.13;5.30;;;;;;;19.53;49.64;98747.31;7009465;28;20204;-77
2022/05/04 07:01:13;;;;;;;10.33;6.00;;;;;;;19.46;49.55;98730.28;7023638;28;20224;-78
2022/05/04 07:04:34;;;;;;;7.27;5.73;;;;;;;19.77;48.99;98745.81;7032409;28;20229;-78
2022/05/04 07:07:56;;;;;;;5.90;5.30;;;;;;;19.86;48.95;98726.97;7032726;28;20243;-78
2022/05/04 07:11:17;;;;;;;6.67;6.07;;;;;;;20.01;49.25;98741.53;7033410;28;20252;-78
2022/05/04 07:14:39;;;;;;;7.33;5.27;;;;;;;20.14;48.35;98748.44;7031526;28;20659;-77
2022/05/04 07:18:02;;;;;;;8.27;5.63;;;;;;;20.24;48.09;98749.34;7023891;28;20205;-77
2022/05/04 07:21:24;;;;;;;5.67;4.80;;;;;;;20.24;48.50;98749.34;7033548;28;20221;-78
2022/05/04 07:24:45;;;;;;;6.73;5.43;;;;;;;20.15;48.91;98753.66;7033228;28;20367;-78
2022/05/04 07:28:08;;;;;;;5.77;5.13;;;;;;;20.24;48.56;98756.72;7032434;28;20236;-78
2022/05/04 07:31:29;;;;;;;6.00;5.40;;;;;;;20.33;48.03;98758.66;7026986;28;20221;-78
2022/05/04 07:34:52;;;;;;;7.53;5.13;;;;;;;20.48;47.91;98735.97;7031130;28;20689;-77
2022/05/04 07:38:14;;;;;;;6.87;5.33;;;;;;;20.46;47.60;98743.66;7031597;28;20283;-78
2022/05/04 07:45:15;;;;;;;6.90;5.63;;;;;;;20.30;48.51;98753.75;7031202;28;20300;-77
2022/05/04 07:48:37;;;;;;;6.23;5.10;;;;;;;20.61;47.54;98751.91;7016340;28;20648;-77
2022/05/04 07:52:00;;;;;;;5.83;5.33;;;;;;;20.59;47.03;98751.34;7003242;28;20232;-78
2022/05/04 07:55:21;;;;;;;5.67;5.03;;;;;;;20.69;46.69;98767.81;7003888;28;20220;-77
2022/05/04 07:58:43;;;;;;;5.93;5.10;;;;;;;20.64;46.79;98762.31;7008477;28;20193;-77
2022/05/04 08:05:45;;;;;;;6.60;5.80;;;;;;;20.72;48.13;98772.75;7017792;28;20215;-77
2022/05/04 08:09:08;;;;;;;5.70;5.10;;;;;;;21.27;45.87;98776.41;7022718;28;20220;-77
2022/05/04 08:12:32;;;;;;;5.50;5.00;;;;;;;21.61;44.77;98769.25;7027738;28;20217;-77
2022/05/04 08:15:53;;;;;;;5.87;5.10;;;;;;;21.11;45.68;98779.44;7005047;28;20232;-77
2022/05/04 08:19:15;;;;;;;5.60;5.10;;;;;;;21.04;45.99;98771.47;7029317;28;20197;-78
2022/05/04 08:22:36;;;;;;;6.07;5.40;;;;;;;21.74;44.91;98757.72;7031257;28;20261;-78
2022/05/04 08:25:59;;;;;;;6.50;5.10;;;;;;;20.99;46.46;98768.72;7021949;28;20210;-77
2022/05/04 08:29:21;;;;;;;5.80;5.20;;;;;;;20.96;46.02;98785.72;7024259;28;20205;-77
2022/05/04 08:32:44;;;;;;;5.60;5.10;;;;;;;21.03;45.44;98772.56;7004059;28;20641;-77
2022/05/04 08:36:06;;;;;;;6.20;5.30;;;;;;;21.13;47.43;98781.59;7001984;28;20364;-77
2022/05/04 08:39:28;;;;;;;6.97;5.30;;;;;;;21.07;45.43;98781.06;7002261;28;20212;-78
2022/05/04 08:42:52;;;;;;;6.10;5.27;;;;;;;21.78;44.23;98773.34;7001983;28;20234;-77
2022/05/04 08:46:15;;;;;;;6.53;5.60;;;;;;;21.18;45.30;98780.81;7001715;28;20276;-77
2022/05/04 08:49:38;;;;;;;6.23;5.37;;;;;;;20.85;46.32;98778.53;7002468;28;20202;-77
2022/05/04 08:53:00;;;;;;;6.47;5.80;;;;;;;20.69;46.75;98784.25;7002028;28;20250;-77
2022/05/04 08:56:21;;;;;;;7.47;5.07;;;;;;;21.17;45.24;98745.44;7023777;28;20248;-77
2022/05/04 08:59:44;;;;;;;6.43;5.70;;;;;;;21.28;45.35;98778.03;7013736;28;20210;-78
2022/05/04 09:03:07;;;;;;;12.27;6.53;;;;;;;21.84;44.21;98785.16;7002055;28;20686;-78
2022/05/04 09:06:30;;;;;;;6.40;5.73;;;;;;;21.41;44.02;98785.72;7021933;28;20234;-78
2022/05/04 09:09:52;;;;;;;7.77;6.20;;;;;;;20.92;45.88;98786.53;7029860;28;20209;-77
2022/05/04 09:13:14;;;;;;;7.10;5.87;;;;;;;21.86;44.09;98771.97;7028740;28;20222;-77
2022/05/04 09:16:37;;;;;;;11.17;6.17;;;;;;;21.70;44.10;98726.44;7029585;28;20190;-78
2022/05/04 09:23:37;;;;;;;19.33;14.73;;;;;;;22.14;43.45;98728.22;7028588;28;20230;-77
2022/05/04 09:26:59;;;;;;;11.23;10.23;;;;;;;22.16;44.58;98756.25;7029398;28;20213;-78
2022/05/04 09:30:26;;;;;;;7.13;6.43;;;;;;;21.45;45.20;98753.91;7030252;28;20380;-78
2022/05/04 09:33:54;;;;;;;9.20;7.80;;;;;;;21.73;45.87;98753.34;7030100;28;20355;-78
2022/05/04 09:44:58;;;;;;;17.83;13.13;;;;;;;21.33;48.05;98747.06;7006538;28;20745;-78
2022/05/04 09:48:29;;;;;;;8.80;7.90;;;;;;;21.54;48.60;98749.53;7005843;28;20203;-78
2022/05/04 09:51:53;;;;;;;10.17;7.77;;;;;;;21.17;48.01;98755.28;7007158;28;20238;-77
2022/05/04 09:55:16;;;;;;;9.67;8.67;;;;;;;21.49;50.35;98752.25;7021757;28;20214;-78
2022/05/04 09:58:38;;;;;;;10.17;8.60;;;;;;;21.87;50.01;98755.22;7034110;28;20673;-76
2022/05/04 10:02:03;;;;;;;10.53;9.50;;;;;;;22.50;49.21;98759.97;7016580;28;20783;-79
2022/05/04 10:05:25;;;;;;;9.43;8.30;;;;;;;22.71;47.65;98749.69;7029162;28;20222;-80
2022/05/04 10:08:48;;;;;;;10.33;7.80;;;;;;;22.39;46.70;98733.59;7034323;28;20302;-76
2022/05/04 10:12:10;;;;;;;9.93;8.27;;;;;;;23.95;45.86;98750.56;7032508;28;20594;-79
2022/05/04 10:15:32;;;;;;;9.20;8.30;;;;;;;22.48;44.97;98750.34;7032684;28;20188;-78
2022/05/04 10:18:55;;;;;;;11.90;8.90;;;;;;;23.59;44.31;98746.50;7033525;28;20338;-78
2022/05/04 10:22:21;;;;;;;13.63;9.80;;;;;;;24.24;44.30;98754.06;7035676;28;20258;-79
2022/05/04 10:25:44;;;;;;;20.90;15.70;;;;;;;24.55;41.51;98743.47;7034860;28;20234;-79
2022/05/04 10:33:02;;;;;;;6.83;5.90;;;;;;;25.51;39.13;98718.81;7007358;28;20224;-78
2022/05/04 10:36:29;;;;;;;7.97;5.67;;;;;;;25.50;36.75;98740.13;7004980;28;20225;-79
2022/05/04 10:40:06;;;;;;;6.70;5.93;;;;;;;25.76;37.86;98721.13;7004099;28;20201;-78
2022/05/04 10:43:37;;;;;;;7.30;6.00;;;;;;;25.76;36.89;98727.47;7003952;28;20233;-79
2022/05/04 10:47:01;;;;;;;7.33;6.57;;;;;;;24.78;38.22;98691.03;7013664;28;20208;-80
2022/05/04 10:50:22;;;;;;;6.93;6.23;;;;;;;24.48;39.72;98730.06;7013653;28;20210;-79
2022/05/04 10:53:46;;;;;;;5.93;5.40;;;;;;;24.09;38.32;98729.47;7005391;28;20721;-79
2022/05/04 10:57:09;;;;;;;10.93;7.73;;;;;;;24.59;39.68;98728.84;7003834;28;20213;-80
2022/05/04 11:00:32;;;;;;;7.60;6.90;;;;;;;25.00;37.50;98723.53;7004614;28;20352;-79
2022/05/04 11:03:59;;;;;;;8.20;7.50;;;;;;;24.34;39.45;98681.47;7014005;28;20223;-79
2022/05/04 11:07:25;;;;;;;4.83;4.33;;;;;;;23.80;34.99;98684.63;7031208;28;20208;-79
2022/05/04 11:10:46;;;;;;;5.67;5.17;;;;;;;23.66;37.21;98704.88;7022587;28;20210;-79
2022/05/04 11:14:09;;;;;;;6.20;5.60;;;;;;;24.55;36.45;98713.97;7003090;28;20557;-80
2022/05/04 11:17:33;;;;;;;6.53;4.90;;;;;;;24.10;36.91;98694.47;7003353;28;20239;-79
2022/05/04 11:20:55;;;;;;;6.07;4.87;;;;;;;23.69;37.49;98694.09;7003676;28;20252;-79
2022/05/04 11:24:18;;;;;;;4.03;3.73;;;;;;;25.21;33.97;98687.03;7003697;28;20313;-79
2022/05/04 11:27:39;;;;;;;5.50;3.77;;;;;;;26.43;31.68;98681.63;7003658;28;20218;-79
2022/05/04 11:31:01;;;;;;;4.47;3.83;;;;;;;26.29;32.56;98680.81;7002759;28;20247;-80
2022/05/04 11:34:24;;;;;;;4.00;3.33;;;;;;;26.72;31.98;98682.09;7004508;28;20202;-79
2022/05/04 11:37:46;;;;;;;3.90;3.30;;;;;;;26.75;30.85;98657.38;7003051;28;20210;-79
2022/05/04 11:41:11;;;;;;;3.60;3.30;;;;;;;26.67;30.81;98671.94;7003486;28;20289;-80
2022/05/04 11:44:32;;;;;;;3.97;3.63;;;;;;;26.58;31.12;98675.75;7019944;28;20225;-79
2022/05/04 11:47:54;;;;;;;3.67;3.37;;;;;;;25.05;33.51;98682.88;7029988;28;20212;-79
2022/05/04 11:51:17;;;;;;;4.27;3.87;;;;;;;25.39;33.94;98653.06;7031464;28;20283;-78
2022/05/04 11:54:39;;;;;;;4.70;4.30;;;;;;;25.36;33.89;98677.69;7032035;28;20241;-79
2022/05/04 11:58:00;;;;;;;6.70;6.03;;;;;;;25.41;35.32;98674.81;7031072;28;20839;-78
2022/05/04 12:01:22;;;;;;;7.30;6.60;;;;;;;24.55;37.92;98672.59;7031677;28;20229;-78
2022/05/04 12:04:47;;;;;;;8.40;7.60;;;;;;;24.40;38.27;98656.31;7032532;28;20228;-78
2022/05/04 12:08:10;;;;;;;8.23;7.33;;;;;;;24.42;37.70;98656.81;7032191;28;20204;-78
2022/05/04 12:11:32;;;;;;;8.53;7.57;;;;;;;24.81;37.38;98671.16;7031026;28;20327;-78
2022/05/04 12:14:54;;;;;;;7.77;6.97;;;;;;;24.46;36.88;98679.91;7031149;28;20213;-78
2022/05/04 12:18:15;;;;;;;6.43;5.83;;;;;;;25.03;35.78;98673.28;7031447;28;20205;-77
2022/05/04 12:21:37;;;;;;;6.07;5.57;;;;;;;24.74;36.72;98673.47;7030057;28;20882;-77
2022/05/04 12:25:01;;;;;;;7.27;6.50;;;;;;;25.09;36.52;98637.03;7031793;28;20237;-78
2022/05/04 12:28:22;;;;;;;7.57;6.87;;;;;;;25.10;35.83;98657.97;7031646;28;20747;-78
2022/05/04 12:35:24;;;;;;;9.07;5.97;;;;;;;25.39;34.51;98661.34;7030688;28;20276;-78
2022/05/04 12:38:49;;;;;;;6.73;5.70;;;;;;;25.29;34.96;98656.00;7030258;28;20211;-78
2022/05/04 12:42:15;;;;;;;5.30;4.80;;;;;;;26.05;33.60;98650.66;7030430;28;20234;-78
2022/05/04 12:45:37;;;;;;;6.47;5.87;;;;;;;25.91;33.54;98655.38;7039586;28;20224;-78
2022/05/04 12:48:59;;;;;;;5.70;5.20;;;;;;;26.39;33.19;98644.66;7030464;28;20259;-78
2022/05/04 12:52:21;;;;;;;6.70;5.13;;;;;;;26.57;32.75;98640.94;7030909;28;20232;-78
2022/05/04 12:59:22;;;;;;;4.73;4.33;;;;;;;26.81;31.43;98642.28;7032098;28;20662;-78
2022/05/04 13:02:44;;;;;;;4.60;4.00;;;;;;;27.23;30.49;98638.19;7032068;28;20235;-78
2022/05/04 13:06:06;;;;;;;5.50;4.20;;;;;;;25.16;32.94;98636.63;7030283;28;20229;-78
2022/05/04 13:09:28;;;;;;;4.70;4.30;;;;;;;25.14;31.99;98625.88;7029424;28;20269;-78
2022/05/04 13:12:50;;;;;;;5.33;4.30;;;;;;;25.68;31.53;98617.72;7030277;28;20610;-78
2022/05/04 13:16:13;;;;;;;6.50;5.77;;;;;;;25.01;34.04;98617.59;7035822;28;20237;-78
2022/05/04 13:19:36;;;;;;;5.87;5.27;;;;;;;25.69;33.17;98604.69;7035261;28;20207;-78
2022/05/04 13:22:57;;;;;;;6.47;5.30;;;;;;;24.84;33.86;98582.28;7029810;28;20217;-78
2022/05/04 13:26:19;;;;;;;5.67;5.10;;;;;;;25.12;33.90;98613.53;7033711;28;20232;-78
2022/05/04 13:29:42;;;;;;;5.10;4.70;;;;;;;25.03;34.63;98599.59;7033883;28;20205;-78
2022/05/04 13:33:05;;;;;;;12.50;7.17;;;;;;;24.08;42.21;98612.09;7006719;28;20596;-77
2022/05/04 13:36:26;;;;;;;7.20;6.50;;;;;;;23.87;44.78;98621.78;7011713;28;20206;-78
2022/05/04 13:39:48;;;;;;;8.27;6.27;;;;;;;23.70;43.17;98615.91;7016124;28;20235;-79
2022/05/04 13:43:10;;;;;;;7.60;6.37;;;;;;;23.82;43.90;98605.28;7036245;28;20242;-77
2022/05/04 13:46:31;;;;;;;7.23;6.03;;;;;;;24.10;42.59;98593.38;7018609;28;20233;-78
2022/05/04 13:49:54;;;;;;;6.70;5.53;;;;;;;24.35;40.09;98597.66;7009571;28;20543;-77
2022/05/04 13:53:15;;;;;;;6.47;4.87;;;;;;;24.37;41.99;98603.72;7034607;28;20253;-78
2022/05/04 13:56:37;;;;;;;7.47;5.43;;;;;;;24.46;40.38;98596.41;7033039;28;20366;-78
2022/05/04 13:59:59;;;;;;;6.43;5.50;;;;;;;24.91;43.65;98593.75;7020362;28;20210;-78
2022/05/04 14:03:21;;;;;;;5.57;5.07;;;;;;;24.89;44.26;98589.66;7034272;28;20236;-78
2022/05/04 14:06:44;;;;;;;6.87;6.17;;;;;;;24.73;45.28;98600.09;7032910;28;20228;-77
2022/05/04 14:10:06;;;;;;;6.20;5.60;;;;;;;24.71;44.42;98604.31;7034130;28;20572;-78
2022/05/04 14:13:29;;;;;;;6.93;6.23;;;;;;;24.49;46.42;98601.31;7026635;28;20241;-77
2022/05/04 14:16:51;;;;;;;6.67;6.07;;;;;;;24.63;45.27;98607.75;7005349;28;20628;-78
2022/05/04 14:20:12;;;;;;;7.40;6.47;;;;;;;24.00;45.30;98582.47;7005568;28;20206;-78
2022/05/04 14:23:35;;;;;;;6.37;5.77;;;;;;;24.28;45.41;98594.47;7013789;28;20233;-77
2022/05/04 14:26:57;;;;;;;7.67;5.70;;;;;;;24.55;44.10;98595.41;7032204;28;20305;-77
2022/05/04 14:30:19;;;;;;;5.63;4.93;;;;;;;24.50;44.25;98592.75;7033027;28;20657;-77
2022/05/04 14:33:40;;;;;;;6.00;4.67;;;;;;;24.46;42.86;98583.44;7033340;28;20235;-78
2022/05/04 14:37:02;;;;;;;5.63;4.87;;;;;;;24.55;43.11;98586.34;7028790;28;20200;-78
2022/05/04 14:40:25;;;;;;;4.90;4.40;;;;;;;24.41;42.31;98590.97;7015449;28;20205;-77
2022/05/04 14:43:46;;;;;;;4.67;4.27;;;;;;;24.26;43.16;98583.75;7033321;28;20235;-78
2022/05/04 14:47:08;;;;;;;6.40;4.20;;;;;;;24.32;43.34;98567.97;7032897;28;20235;-77
2022/05/04 14:50:31;;;;;;;5.43;4.20;;;;;;;24.33;44.17;98588.88;7032553;28;20226;-78
2022/05/04 14:53:52;;;;;;;4.77;4.27;;;;;;;24.35;44.24;98586.63;7016358;28;20235;-77
2022/05/04 14:57:17;;;;;;;4.50;4.10;;;;;;;24.32;44.03;98585.34;7023710;28;20708;-77
2022/05/04 15:00:38;;;;;;;6.83;4.30;;;;;;;24.50;43.99;98595.53;7016301;28;20195;-76
2022/05/04 15:07:39;;;;;;;5.67;3.97;;;;;;;24.44;43.63;98593.97;7021191;28;20661;-76
2022/05/04 15:11:01;;;;;;;4.83;3.90;;;;;;;24.46;42.92;98591.72;7031878;28;20378;-77
2022/05/04 15:14:24;;;;;;;6.33;4.43;;;;;;;24.79;41.88;98595.34;7031246;28;20560;-77
2022/05/04 15:17:45;;;;;;;4.60;4.17;;;;;;;24.94;39.54;98606.94;7012498;28;20276;-77
2022/05/04 15:21:07;;;;;;;7.33;4.20;;;;;;;24.78;40.65;98607.50;7031111;28;20303;-77
2022/05/04 15:24:28;;;;;;;4.53;4.00;;;;;;;24.89;39.74;98607.00;7014315;28;20353;-77
2022/05/04 15:27:50;;;;;;;5.33;4.00;;;;;;;25.12;39.38;98610.78;7021752;28;20289;-77
2022/05/04 15:31:13;;;;;;;5.17;3.80;;;;;;;24.35;39.56;98612.28;7018985;28;20680;-77
2022/05/04 15:34:34;;;;;;;4.43;3.87;;;;;;;23.87;39.51;98610.75;7031807;28;20210;-76
2022/05/04 15:37:56;;;;;;;3.43;3.13;;;;;;;23.77;39.15;98619.09;7030830;28;20684;-77
2022/05/04 15:41:18;;;;;;;4.10;2.90;;;;;;;24.47;37.86;98612.66;7027054;28;20236;-76
2022/05/04 15:44:40;;;;;;;2.50;2.30;;;;;;;23.84;38.10;98607.75;7022138;28;20226;-77
2022/05/04 15:48:03;;;;;;;4.33;2.80;;;;;;;24.32;37.97;98596.34;7002896;28;20574;-77
2022/05/04 15:51:25;;;;;;;4.50;2.60;;;;;;;24.74;36.83;98601.78;7005087;28;20231;-76
2022/05/04 15:54:46;;;;;;;3.57;2.80;;;;;;;24.66;35.75;98574.06;7002668;28;20298;-75
2022/05/04 15:58:08;;;;;;;4.20;2.87;;;;;;;24.78;36.34;98572.44;7016295;28;20209;-77
2022/05/04 16:01:30;;;;;;;3.63;2.80;;;;;;;25.03;35.68;98580.31;7020320;28;20716;-78
2022/05/04 16:04:53;;;;;;;3.53;2.97;;;;;;;25.34;34.32;98578.63;7003056;28;20229;-78
2022/05/04 16:08:16;;;;;;;3.83;3.53;;;;;;;25.28;33.19;98588.13;7002502;28;20207;-78
2022/05/04 16:11:38;;;;;;;5.60;3.33;;;;;;;24.96;35.34;98590.88;7002043;28;20262;-78
2022/05/04 16:15:00;;;;;;;3.40;3.10;;;;;;;24.31;35.05;98596.66;7022066;28;20704;-78
2022/05/04 16:22:02;;;;;;;3.57;3.17;;;;;;;23.81;35.64;98583.53;7031151;28;20224;-78
2022/05/04 16:25:24;;;;;;;3.90;3.50;;;;;;;23.76;36.19;98605.63;7031139;28;20692;-78
2022/05/04 16:28:46;;;;;;;4.20;3.73;;;;;;;23.57;36.70;98605.59;7003321;28;20295;-78
2022/05/04 16:32:08;;;;;;;4.07;3.67;;;;;;;23.71;36.19;98603.78;7002582;28;20231;-78
2022/05/04 16:35:29;;;;;;;3.00;2.60;;;;;;;22.88;36.74;98602.44;7003012;28;20373;-78
2022/05/04 16:38:52;;;;;;;3.10;2.90;;;;;;;22.97;37.00;98608.97;7002225;28;20215;-78